Time;durP1;ratioP1;P1;durP2;ratioP2;P2;SDS_P1;SDS_P2;PMS_P1;PMS_P2;Temp;Humidity;BMP_temperature;BMP_pressure;BME280_temperature;BME280_humidity;BME280_pressure;Samples;Min_cycle;Max_cycle;Signal;HPM_P1;HPM_P2
2022/07/20 00:01:10;;;;;;;43.77;5.93;;;;;;;;;;5053845;28;20223;-80
2022/07/20 00:03:37;;;;;;;32.03;5.70;;;;;;;;;;5056702;28;20254;-81
2022/07/20 00:06:04;;;;;;;68.63;7.30;;;;;;;;;;5056707;28;20278;-79
2022/07/20 00:11:20;;;;;;;95.40;8.27;;;;;;;;;;5055301;28;20758;-80
2022/07/20 00:13:48;;;;;;;95.37;9.10;;;;;;;;;;5055250;28;20282;-81
2022/07/20 00:16:15;;;;;;;77.47;8.23;;;;;;;;;;5053820;28;20310;-81
2022/07/20 00:18:42;;;;;;;54.83;6.77;;;;;;;;;;5057211;28;20202;-81
2022/07/20 00:21:09;;;;;;;81.03;9.73;;;;;;;;;;5056475;28;20269;-81
2022/07/20 00:23:36;;;;;;;83.57;8.20;;;;;;;;;;5056259;28;20202;-81
2022/07/20 00:26:04;;;;;;;55.37;7.73;;;;;;;;;;5052390;28;20266;-79
2022/07/20 00:28:32;;;;;;;53.37;6.73;;;;;;;;;;5054502;28;20302;-81
2022/07/20 00:30:59;;;;;;;54.73;7.10;;;;;;;;;;5054950;28;20227;-80
2022/07/20 00:33:27;;;;;;;51.60;6.27;;;;;;;;;;5053548;28;20203;-79
2022/07/20 00:35:54;;;;;;;27.47;5.33;;;;;;;;;;5054802;28;20305;-81
2022/07/20 00:38:21;;;;;;;32.93;5.30;;;;;;;;;;5058778;28;20225;-80
2022/07/20 00:40:48;;;;;;;42.80;5.87;;;;;;;;;;5053640;28;20219;-80
2022/07/20 00:43:15;;;;;;;33.97;5.53;;;;;;;;;;5054742;28;20242;-80
2022/07/20 00:45:44;;;;;;;22.27;4.77;;;;;;;;;;5056296;28;20209;-81
2022/07/20 00:48:11;;;;;;;23.07;5.63;;;;;;;;;;5049910;28;20611;-81
2022/07/20 00:50:39;;;;;;;7.60;4.07;;;;;;;;;;5057172;28;20310;-80
2022/07/20 00:53:06;;;;;;;20.23;5.23;;;;;;;;;;5054864;28;20215;-79
2022/07/20 00:55:33;;;;;;;22.57;5.07;;;;;;;;;;5048623;28;20760;-80
2022/07/20 00:58:00;;;;;;;23.37;5.20;;;;;;;;;;5053197;28;20290;-80
2022/07/20 01:00:28;;;;;;;19.83;5.30;;;;;;;;;;5051501;28;20265;-81
2022/07/20 01:02:56;;;;;;;22.60;5.47;;;;;;;;;;5055873;28;20237;-80
2022/07/20 01:05:24;;;;;;;8.73;4.43;;;;;;;;;;5055361;28;20310;-81
2022/07/20 01:07:51;;;;;;;14.47;4.97;;;;;;;;;;5054455;28;20199;-80
2022/07/20 01:10:20;;;;;;;10.07;4.80;;;;;;;;;;5052232;28;20237;-80
2022/07/20 01:12:48;;;;;;;11.03;4.90;;;;;;;;;;5050392;28;20211;-81
2022/07/20 01:15:15;;;;;;;16.10;4.87;;;;;;;;;;5052142;28;20832;-79
2022/07/20 01:17:42;;;;;;;12.80;5.20;;;;;;;;;;5051095;28;20207;-80
2022/07/20 01:20:15;;;;;;;11.17;4.93;;;;;;;;;;5055564;28;20251;-81
2022/07/20 01:22:44;;;;;;;15.73;4.67;;;;;;;;;;5054365;28;20271;-80
2022/07/20 01:25:11;;;;;;;10.77;4.90;;;;;;;;;;5055093;28;20285;-80
2022/07/20 01:27:38;;;;;;;9.00;4.23;;;;;;;;;;5054929;28;20290;-80
2022/07/20 01:30:06;;;;;;;11.07;4.53;;;;;;;;;;5054076;28;20315;-80
2022/07/20 01:32:33;;;;;;;10.53;5.10;;;;;;;;;;5055761;28;20211;-79
2022/07/20 01:35:00;;;;;;;10.60;5.13;;;;;;;;;;5055884;28;20222;-80
2022/07/20 01:37:29;;;;;;;10.17;5.03;;;;;;;;;;5055678;28;20223;-80
2022/07/20 01:39:58;;;;;;;9.53;5.10;;;;;;;;;;5055107;28;20223;-80
2022/07/20 01:42:25;;;;;;;13.40;5.30;;;;;;;;;;5058397;28;20199;-80
2022/07/20 01:44:52;;;;;;;10.43;4.77;;;;;;;;;;5055058;28;20202;-80
2022/07/20 01:47:19;;;;;;;11.07;4.90;;;;;;;;;;5059303;28;20585;-79
2022/07/20 01:49:47;;;;;;;7.60;5.10;;;;;;;;;;5054824;28;20730;-78
2022/07/20 01:52:14;;;;;;;12.83;5.30;;;;;;;;;;5054087;28;20211;-79
2022/07/20 01:54:41;;;;;;;11.37;4.60;;;;;;;;;;5054177;28;20210;-79
2022/07/20 01:57:09;;;;;;;9.30;4.87;;;;;;;;;;5056720;28;20207;-80
2022/07/20 01:59:37;;;;;;;9.93;4.57;;;;;;;;;;5053709;28;20203;-80
2022/07/20 02:02:04;;;;;;;7.47;5.20;;;;;;;;;;5052921;28;20328;-79
2022/07/20 02:04:31;;;;;;;10.97;4.73;;;;;;;;;;5051214;28;20199;-80
2022/07/20 02:06:58;;;;;;;14.43;4.80;;;;;;;;;;5053119;28;20294;-79
2022/07/20 02:09:25;;;;;;;11.57;5.03;;;;;;;;;;5057118;28;20213;-80
2022/07/20 02:11:52;;;;;;;15.37;5.13;;;;;;;;;;5052180;28;20319;-80
2022/07/20 02:14:21;;;;;;;7.23;4.97;;;;;;;;;;5052123;28;20203;-80
2022/07/20 02:16:48;;;;;;;10.07;4.80;;;;;;;;;;5047728;28;20222;-79
2022/07/20 02:19:15;;;;;;;10.40;4.70;;;;;;;;;;5051226;28;20213;-79
2022/07/20 02:21:42;;;;;;;10.97;5.13;;;;;;;;;;5051034;28;20306;-79
2022/07/20 02:24:10;;;;;;;10.47;5.20;;;;;;;;;;5048539;28;20290;-79
2022/07/20 02:26:37;;;;;;;11.00;5.20;;;;;;;;;;5051732;28;20297;-79
2022/07/20 02:29:04;;;;;;;10.13;5.23;;;;;;;;;;5050764;28;20262;-79
2022/07/20 02:31:33;;;;;;;10.30;5.27;;;;;;;;;;5051560;28;20777;-78
2022/07/20 02:34:00;;;;;;;11.10;4.93;;;;;;;;;;5051234;28;20577;-79
2022/07/20 02:36:27;;;;;;;10.60;5.57;;;;;;;;;;5052369;28;20276;-79
2022/07/20 02:38:54;;;;;;;8.97;5.27;;;;;;;;;;5050954;28;20290;-79
2022/07/20 02:41:21;;;;;;;7.40;4.73;;;;;;;;;;5050707;28;20286;-79
2022/07/20 02:43:48;;;;;;;10.90;5.27;;;;;;;;;;5051664;28;20203;-79
2022/07/20 02:46:15;;;;;;;9.43;5.10;;;;;;;;;;5046781;28;20289;-79
2022/07/20 02:48:44;;;;;;;9.20;5.00;;;;;;;;;;5052057;28;20233;-79
2022/07/20 02:51:11;;;;;;;10.27;4.83;;;;;;;;;;5051665;28;20826;-80
2022/07/20 02:53:38;;;;;;;11.67;5.30;;;;;;;;;;5048408;28;20294;-80
2022/07/20 02:56:05;;;;;;;8.83;5.20;;;;;;;;;;5053132;28;20218;-80
2022/07/20 02:58:33;;;;;;;10.63;5.53;;;;;;;;;;5054150;28;20275;-79
2022/07/20 03:01:00;;;;;;;11.03;5.97;;;;;;;;;;5054392;28;20329;-79
2022/07/20 03:03:27;;;;;;;13.43;5.83;;;;;;;;;;5054940;28;20289;-80
2022/07/20 03:05:55;;;;;;;8.83;4.97;;;;;;;;;;5058002;28;20214;-79
2022/07/20 03:08:23;;;;;;;10.00;5.60;;;;;;;;;;5057120;28;20611;-79
2022/07/20 03:10:50;;;;;;;9.97;5.17;;;;;;;;;;5083851;22;21588;-80
2022/07/20 03:13:17;;;;;;;12.83;5.70;;;;;;;;;;5054778;28;20299;-80
2022/07/20 03:15:44;;;;;;;8.73;4.97;;;;;;;;;;5055050;28;20760;-80
2022/07/20 03:18:11;;;;;;;10.23;5.20;;;;;;;;;;5055874;28;20333;-80
2022/07/20 03:20:38;;;;;;;9.80;4.80;;;;;;;;;;5056225;28;20281;-79
2022/07/20 03:23:08;;;;;;;8.03;5.43;;;;;;;;;;5040717;28;20203;-81
2022/07/20 03:25:35;;;;;;;9.47;5.43;;;;;;;;;;5041049;28;20203;-80
2022/07/20 03:28:02;;;;;;;10.87;5.77;;;;;;;;;;5032740;28;20209;-80
2022/07/20 03:30:29;;;;;;;8.27;5.20;;;;;;;;;;5037994;28;20480;-79
2022/07/20 03:32:57;;;;;;;9.60;5.70;;;;;;;;;;5034137;28;21087;-79
2022/07/20 03:35:25;;;;;;;8.50;5.23;;;;;;;;;;5029381;28;20291;-81
2022/07/20 03:37:52;;;;;;;9.33;5.10;;;;;;;;;;5040979;28;20278;-81
2022/07/20 03:40:20;;;;;;;11.43;5.17;;;;;;;;;;5043010;28;20204;-79
2022/07/20 03:42:47;;;;;;;9.13;5.57;;;;;;;;;;5040910;28;20250;-79
2022/07/20 03:45:15;;;;;;;8.90;5.17;;;;;;;;;;5034986;28;20251;-80
2022/07/20 03:47:42;;;;;;;11.77;5.30;;;;;;;;;;5036993;28;20199;-80
2022/07/20 03:50:10;;;;;;;11.50;5.13;;;;;;;;;;5026886;28;20286;-80
2022/07/20 03:52:37;;;;;;;12.77;5.80;;;;;;;;;;5032357;28;20223;-79
2022/07/20 03:55:04;;;;;;;26.90;7.00;;;;;;;;;;5033164;28;20214;-79
2022/07/20 03:57:33;;;;;;;16.63;5.90;;;;;;;;;;5035442;28;20274;-80
2022/07/20 04:00:00;;;;;;;13.57;5.47;;;;;;;;;;5041751;28;20206;-79
2022/07/20 04:02:28;;;;;;;14.53;5.70;;;;;;;;;;5043105;28;20311;-80
2022/07/20 04:04:55;;;;;;;11.97;5.63;;;;;;;;;;5037368;28;20283;-79
2022/07/20 04:07:22;;;;;;;14.47;5.60;;;;;;;;;;5035465;28;20211;-80
2022/07/20 04:09:49;;;;;;;20.40;5.63;;;;;;;;;;5037789;28;20199;-80
2022/07/20 04:12:18;;;;;;;19.67;5.73;;;;;;;;;;5035203;28;20273;-81
2022/07/20 04:14:47;;;;;;;45.43;6.70;;;;;;;;;;5043818;28;20222;-80
2022/07/20 04:17:14;;;;;;;30.00;5.90;;;;;;;;;;5031384;28;20760;-81
2022/07/20 04:19:41;;;;;;;19.90;5.47;;;;;;;;;;5037658;28;20196;-81
2022/07/20 04:22:09;;;;;;;31.40;6.03;;;;;;;;;;5032453;28;20306;-80
2022/07/20 04:24:36;;;;;;;26.47;5.87;;;;;;;;;;5036608;28;20950;-81
2022/07/20 04:27:03;;;;;;;24.17;5.20;;;;;;;;;;5038858;28;20241;-81
2022/07/20 04:29:31;;;;;;;25.27;5.37;;;;;;;;;;5043020;28;20275;-80
2022/07/20 04:32:00;;;;;;;22.77;5.37;;;;;;;;;;5033844;28;20301;-80
2022/07/20 04:34:27;;;;;;;34.97;5.97;;;;;;;;;;5034490;28;20200;-80
2022/07/20 04:36:54;;;;;;;37.70;5.97;;;;;;;;;;5042769;28;20215;-80
2022/07/20 04:39:22;;;;;;;25.17;5.40;;;;;;;;;;5027843;28;20208;-80
2022/07/20 04:41:49;;;;;;;29.43;5.77;;;;;;;;;;5027460;28;20353;-80
2022/07/20 04:44:16;;;;;;;41.30;5.97;;;;;;;;;;5030981;28;20251;-81
2022/07/20 04:46:43;;;;;;;35.50;6.40;;;;;;;;;;5027002;28;20209;-80
2022/07/20 04:49:12;;;;;;;28.63;5.30;;;;;;;;;;5029448;28;20216;-80
2022/07/20 04:51:39;;;;;;;35.80;6.53;;;;;;;;;;5037654;28;20256;-81
2022/07/20 04:54:06;;;;;;;34.73;6.13;;;;;;;;;;5034719;28;20201;-80
2022/07/20 04:56:33;;;;;;;27.47;5.67;;;;;;;;;;5037604;28;20737;-81
2022/07/20 04:59:03;;;;;;;39.20;5.97;;;;;;;;;;5032112;28;20301;-79
2022/07/20 05:01:30;;;;;;;28.43;5.53;;;;;;;;;;5036084;28;20231;-81
2022/07/20 05:03:57;;;;;;;18.20;5.33;;;;;;;;;;5030367;28;20267;-81
2022/07/20 05:06:26;;;;;;;16.03;5.67;;;;;;;;;;5034493;28;20201;-81
2022/07/20 05:08:53;;;;;;;13.93;4.43;;;;;;;;;;5035429;28;20263;-81
2022/07/20 05:11:20;;;;;;;14.53;4.27;;;;;;;;;;5036802;28;20322;-80
2022/07/20 05:13:47;;;;;;;9.83;4.63;;;;;;;;;;5039523;28;20271;-81
2022/07/20 05:16:14;;;;;;;12.00;4.77;;;;;;;;;;5035363;28;20288;-80
2022/07/20 05:18:41;;;;;;;10.30;4.47;;;;;;;;;;5036758;28;20310;-80
2022/07/20 05:21:09;;;;;;;10.27;3.90;;;;;;;;;;5036643;28;20273;-81
2022/07/20 05:23:37;;;;;;;17.97;4.50;;;;;;;;;;5029822;28;20278;-81
2022/07/20 05:26:05;;;;;;;18.63;4.33;;;;;;;;;;5027566;28;20200;-81
2022/07/20 05:28:32;;;;;;;14.70;4.20;;;;;;;;;;5039887;28;20204;-80
2022/07/20 05:31:00;;;;;;;11.43;3.97;;;;;;;;;;5037151;28;20223;-79
2022/07/20 05:33:27;;;;;;;16.10;4.30;;;;;;;;;;5032244;28;20231;-80
2022/07/20 05:35:54;;;;;;;10.73;4.00;;;;;;;;;;5033097;28;20227;-79
2022/07/20 05:38:21;;;;;;;10.67;4.00;;;;;;;;;;5033730;28;20226;-80
2022/07/20 05:40:50;;;;;;;10.53;4.07;;;;;;;;;;5029287;28;20949;-80
2022/07/20 05:43:17;;;;;;;10.70;4.73;;;;;;;;;;5032031;28;20336;-81
2022/07/20 05:45:45;;;;;;;11.97;4.13;;;;;;;;;;5031527;28;20219;-80
2022/07/20 05:48:12;;;;;;;13.83;4.33;;;;;;;;;;5030736;28;20241;-81
2022/07/20 05:50:40;;;;;;;8.43;4.30;;;;;;;;;;5031675;28;20212;-80
2022/07/20 05:53:07;;;;;;;15.30;4.40;;;;;;;;;;5038385;28;20208;-81
2022/07/20 05:55:34;;;;;;;11.33;4.40;;;;;;;;;;5036588;28;20233;-80
2022/07/20 05:58:03;;;;;;;10.70;4.30;;;;;;;;;;5029913;28;20314;-80
2022/07/20 06:00:30;;;;;;;13.07;4.53;;;;;;;;;;5042437;28;20202;-81
2022/07/20 06:02:58;;;;;;;14.17;4.60;;;;;;;;;;5029145;28;20200;-80
2022/07/20 06:05:25;;;;;;;17.03;5.10;;;;;;;;;;5032900;28;20306;-80
2022/07/20 06:07:55;;;;;;;13.60;4.57;;;;;;;;;;5040956;28;20196;-80
2022/07/20 06:10:22;;;;;;;10.60;4.43;;;;;;;;;;5035155;28;20200;-79
2022/07/20 06:12:49;;;;;;;10.87;4.17;;;;;;;;;;5034971;28;20862;-80
2022/07/20 06:15:18;;;;;;;10.30;4.40;;;;;;;;;;5032067;28;20206;-81
2022/07/20 06:17:45;;;;;;;13.47;4.33;;;;;;;;;;5034212;28;20220;-81
2022/07/20 06:20:14;;;;;;;10.23;4.20;;;;;;;;;;5030038;28;20203;-81
2022/07/20 06:22:42;;;;;;;5.83;3.77;;;;;;;;;;5032268;28;20314;-80
2022/07/20 06:25:10;;;;;;;14.97;4.00;;;;;;;;;;5041921;28;20212;-80
2022/07/20 06:27:38;;;;;;;9.33;4.50;;;;;;;;;;5029823;28;20292;-80
2022/07/20 06:30:07;;;;;;;7.15;4.22;;;;;;;;;;5037317;28;20210;-81
2022/07/20 06:32:35;;;;;;;12.45;4.45;;;;;;;;;;5041128;28;20250;-81
2022/07/20 06:35:02;;;;;;;10.90;4.10;;;;;;;;;;5038283;28;20238;-80
2022/07/20 06:37:30;;;;;;;8.95;4.40;;;;;;;;;;5040640;28;20279;-80
2022/07/20 06:39:57;;;;;;;9.98;3.92;;;;;;;;;;5029461;28;20290;-80
2022/07/20 06:42:24;;;;;;;8.70;4.07;;;;;;;;;;5032609;28;20307;-81
2022/07/20 06:44:52;;;;;;;8.43;3.92;;;;;;;;;;5038809;28;20200;-81
2022/07/20 06:47:19;;;;;;;7.22;3.63;;;;;;;;;;5043277;28;20571;-81
2022/07/20 06:49:47;;;;;;;9.65;3.58;;;;;;;;;;5026908;28;20263;-82
2022/07/20 06:52:15;;;;;;;14.32;3.83;;;;;;;;;;5039854;28;20310;-81
2022/07/20 06:54:42;;;;;;;7.47;3.90;;;;;;;;;;5043480;28;20270;-81
2022/07/20 06:57:10;;;;;;;11.73;4.10;;;;;;;;;;5038516;28;20796;-81
2022/07/20 06:59:38;;;;;;;13.27;4.07;;;;;;;;;;5038599;28;20214;-81
2022/07/20 07:02:05;;;;;;;12.32;4.10;;;;;;;;;;5041609;28;20216;-81
2022/07/20 07:04:32;;;;;;;15.77;3.88;;;;;;;;;;5039826;28;20211;-81
2022/07/20 07:07:02;;;;;;;9.32;3.78;;;;;;;;;;5035971;28;20210;-81
2022/07/20 07:09:29;;;;;;;11.88;3.40;;;;;;;;;;5038237;28;20199;-81
2022/07/20 07:11:57;;;;;;;17.65;4.10;;;;;;;;;;5031247;28;20223;-81
2022/07/20 07:14:25;;;;;;;16.08;3.97;;;;;;;;;;5043249;28;20267;-82
2022/07/20 07:16:52;;;;;;;14.80;3.90;;;;;;;;;;5039391;28;20674;-81
2022/07/20 07:19:19;;;;;;;21.90;4.30;;;;;;;;;;5049034;28;20557;-81
2022/07/20 07:24:50;;;;;;;10.90;3.85;;;;;;;;;;5576171;23;20250;-79
2022/07/20 07:33:25;;;;;;;12.77;3.55;;;;;;;;;;5010505;28;20316;-80
2022/07/20 07:35:52;;;;;;;10.30;3.30;;;;;;;;;;5013832;28;20268;-80
2022/07/20 07:38:23;;;;;;;9.50;3.50;;;;;;;;;;5015220;28;20847;-82
2022/07/20 07:47:37;;;;;;;9.88;3.72;;;;;;;;;;5008942;28;20199;-81
2022/07/20 07:59:00;;;;;;;10.27;3.85;;;;;;;;;;4995269;28;20231;-80
2022/07/20 08:01:37;;;;;;;10.75;3.33;;;;;;;;;;4993899;28;20291;-80
2022/07/20 08:04:06;;;;;;;7.95;3.33;;;;;;;;;;4976704;28;20228;-80
2022/07/20 08:09:36;;;;;;;9.32;3.45;;;;;;;;;;4989802;28;20304;-79
2022/07/20 08:12:04;;;;;;;6.70;3.20;;;;;;;;;;4996237;28;20201;-80
2022/07/20 08:14:31;;;;;;;10.48;3.13;;;;;;;;;;5016060;28;20348;-80
2022/07/20 08:16:58;;;;;;;13.40;3.38;;;;;;;;;;5016611;28;20340;-80
2022/07/20 08:19:27;;;;;;;9.40;3.45;;;;;;;;;;5019796;28;20223;-81
2022/07/20 08:21:54;;;;;;;10.05;3.47;;;;;;;;;;5015159;28;20213;-81
2022/07/20 08:24:22;;;;;;;11.60;3.53;;;;;;;;;;5012075;28;20216;-81
2022/07/20 08:26:49;;;;;;;8.30;3.15;;;;;;;;;;5011600;28;20266;-81
2022/07/20 08:32:21;;;;;;;8.40;3.00;;;;;;;;;;5011911;28;20262;-80
2022/07/20 08:37:56;;;;;;;12.02;3.25;;;;;;;;;;5012789;28;20212;-80
2022/07/20 08:40:25;;;;;;;7.00;2.88;;;;;;;;;;5012034;28;20209;-80
2022/07/20 08:42:52;;;;;;;12.13;3.20;;;;;;;;;;5008929;28;20746;-80
2022/07/20 08:48:44;;;;;;;8.38;2.78;;;;;;;;;;5000059;28;20258;-80
2022/07/20 08:51:17;;;;;;;7.45;3.20;;;;;;;;;;5010257;28;20295;-80
2022/07/20 08:53:50;;;;;;;9.55;3.20;;;;;;;;;;5008499;28;20231;-80
2022/07/20 08:56:17;;;;;;;10.07;3.40;;;;;;;;;;5005289;28;20578;-80
2022/07/20 08:58:44;;;;;;;8.98;3.42;;;;;;;;;;5010515;28;20226;-80
2022/07/20 09:01:14;;;;;;;8.15;3.70;;;;;;;;;;5011452;28;20206;-79
2022/07/20 09:03:44;;;;;;;7.22;3.47;;;;;;;;;;5010520;28;20287;-80
2022/07/20 09:06:12;;;;;;;7.38;3.30;;;;;;;;;;5008500;28;20204;-79
2022/07/20 09:08:54;;;;;;;11.95;3.20;;;;;;;;;;5012110;28;20203;-79
2022/07/20 09:11:26;;;;;;;19.27;3.88;;;;;;;;;;5013022;28;20205;-80
2022/07/20 09:13:53;;;;;;;7.47;3.33;;;;;;;;;;5017175;28;20309;-80
2022/07/20 09:16:31;;;;;;;9.93;3.97;;;;;;;;;;5011928;28;20234;-80
2022/07/20 09:18:58;;;;;;;6.82;3.35;;;;;;;;;;5008438;28;20707;-79
2022/07/20 09:21:30;;;;;;;9.00;3.60;;;;;;;;;;5011623;28;20212;-80
2022/07/20 09:23:57;;;;;;;10.85;4.05;;;;;;;;;;5012744;28;20224;-80
2022/07/20 09:26:27;;;;;;;7.90;3.55;;;;;;;;;;5007627;28;20214;-80
2022/07/20 09:28:56;;;;;;;9.05;3.85;;;;;;;;;;5009243;28;20195;-80
2022/07/20 09:31:25;;;;;;;8.60;3.90;;;;;;;;;;5014206;28;20203;-79
2022/07/20 09:33:53;;;;;;;14.88;3.92;;;;;;;;;;5010626;28;20238;-80
2022/07/20 09:36:21;;;;;;;8.27;3.53;;;;;;;;;;5008215;28;20211;-80
2022/07/20 09:38:48;;;;;;;15.35;3.90;;;;;;;;;;5013554;28;20220;-80
2022/07/20 09:41:22;;;;;;;10.48;4.40;;;;;;;;;;5012336;28;20208;-79
2022/07/20 09:46:50;;;;;;;10.02;4.13;;;;;;;;;;5010497;28;20571;-80
2022/07/20 09:49:25;;;;;;;9.90;4.20;;;;;;;;;;5013678;28;20200;-79
2022/07/20 09:51:59;;;;;;;8.98;4.03;;;;;;;;;;5014328;28;20274;-80
2022/07/20 09:54:26;;;;;;;9.05;4.40;;;;;;;;;;5014374;28;20258;-80
2022/07/20 09:56:54;;;;;;;10.60;4.97;;;;;;;;;;5017453;28;20286;-80
2022/07/20 09:59:22;;;;;;;12.45;5.63;;;;;;;;;;5017244;28;20224;-79
2022/07/20 10:01:52;;;;;;;13.95;5.97;;;;;;;;;;5016889;28;20218;-80
2022/07/20 10:04:20;;;;;;;17.17;5.85;;;;;;;;;;5013718;28;20229;-80
2022/07/20 10:06:48;;;;;;;11.52;6.15;;;;;;;;;;5017218;28;20227;-80
2022/07/20 10:09:16;;;;;;;13.15;6.57;;;;;;;;;;5011065;28;20200;-80
2022/07/20 10:14:49;;;;;;;16.35;6.78;;;;;;;;;;5012375;28;20282;-81
2022/07/20 10:20:00;;;;;;;18.70;7.30;;;;;;;;;;5009477;28;20208;-80
2022/07/20 10:22:27;;;;;;;18.92;7.22;;;;;;;;;;5014997;28;20254;-80
2022/07/20 10:25:09;;;;;;;14.25;7.85;;;;;;;;;;5010484;28;20217;-80
2022/07/20 10:27:36;;;;;;;15.20;7.90;;;;;;;;;;5011533;28;20303;-80
2022/07/20 10:30:15;;;;;;;17.48;8.15;;;;;;;;;;5011339;28;20209;-80
2022/07/20 10:32:52;;;;;;;18.98;8.45;;;;;;;;;;5013855;28;20589;-81
2022/07/20 10:35:27;;;;;;;17.77;8.40;;;;;;;;;;5008587;28;20220;-80
2022/07/20 10:37:56;;;;;;;18.25;8.35;;;;;;;;;;5009162;28;20405;-80
2022/07/20 10:40:24;;;;;;;23.50;8.38;;;;;;;;;;5009978;28;20213;-80
2022/07/20 10:42:53;;;;;;;16.38;8.15;;;;;;;;;;5009621;28;20208;-80
2022/07/20 10:45:35;;;;;;;20.48;8.13;;;;;;;;;;5011492;28;20326;-80
2022/07/20 10:48:16;;;;;;;19.52;8.90;;;;;;;;;;5013125;28;20284;-80
2022/07/20 10:50:49;;;;;;;16.90;9.93;;;;;;;;;;5017777;28;20235;-80
2022/07/20 10:53:35;;;;;;;16.60;8.30;;;;;;;;;;5010553;28;21073;-81
2022/07/20 10:56:03;;;;;;;19.98;9.05;;;;;;;;;;5013069;28;20223;-80
2022/07/20 10:58:31;;;;;;;23.20;10.68;;;;;;;;;;5012044;28;20312;-80
2022/07/20 11:06:54;;;;;;;21.73;10.27;;;;;;;;;;5008030;28;20208;-80
2022/07/20 11:09:21;;;;;;;22.98;11.20;;;;;;;;;;5012740;28;20198;-80
2022/07/20 11:11:49;;;;;;;26.45;10.43;;;;;;;;;;5013305;28;20269;-79
2022/07/20 11:14:17;;;;;;;22.35;11.35;;;;;;;;;;5010464;28;20573;-80
2022/07/20 11:16:44;;;;;;;18.67;11.15;;;;;;;;;;5009413;28;20210;-80
2022/07/20 11:19:13;;;;;;;18.25;11.23;;;;;;;;;;5015883;28;20232;-80
2022/07/20 11:21:51;;;;;;;25.23;11.48;;;;;;;;;;5012442;28;20203;-80
2022/07/20 11:24:23;;;;;;;22.30;10.90;;;;;;;;;;5005861;28;20312;-80
2022/07/20 11:26:50;;;;;;;16.52;9.82;;;;;;;;;;5019514;28;20222;-80
2022/07/20 11:29:17;;;;;;;16.85;9.88;;;;;;;;;;5018361;28;20262;-80
2022/07/20 11:31:45;;;;;;;18.85;9.55;;;;;;;;;;5013894;28;20210;-81
2022/07/20 11:34:15;;;;;;;21.80;9.90;;;;;;;;;;5014085;28;20248;-80
2022/07/20 11:36:42;;;;;;;16.50;9.30;;;;;;;;;;5020807;28;20288;-80
2022/07/20 11:39:10;;;;;;;14.98;9.75;;;;;;;;;;5010915;28;20225;-80
2022/07/20 11:41:45;;;;;;;15.38;9.13;;;;;;;;;;5012121;28;20205;-80
2022/07/20 11:44:23;;;;;;;17.13;9.70;;;;;;;;;;5013993;28;20235;-80
2022/07/20 11:46:50;;;;;;;14.48;9.65;;;;;;;;;;5017267;28;20307;-80
2022/07/20 11:49:19;;;;;;;20.48;9.77;;;;;;;;;;5016328;28;20251;-80
2022/07/20 11:51:52;;;;;;;15.65;9.75;;;;;;;;;;5018365;28;20201;-80
2022/07/20 11:54:21;;;;;;;17.60;9.68;;;;;;;;;;5009340;28;20224;-80
2022/07/20 11:56:49;;;;;;;18.25;9.38;;;;;;;;;;5010140;28;20749;-79
2022/07/20 11:59:16;;;;;;;15.88;9.30;;;;;;;;;;5012084;28;20229;-79
2022/07/20 12:01:44;;;;;;;15.20;8.82;;;;;;;;;;5014862;28;20225;-80
2022/07/20 12:04:17;;;;;;;18.08;9.10;;;;;;;;;;5013836;28;20717;-79
2022/07/20 12:06:45;;;;;;;14.48;8.80;;;;;;;;;;5017300;28;20292;-79
2022/07/20 12:09:14;;;;;;;13.60;8.63;;;;;;;;;;5011278;28;20240;-79
2022/07/20 12:11:54;;;;;;;15.60;8.82;;;;;;;;;;5011890;28;20217;-78
2022/07/20 12:14:26;;;;;;;18.40;8.27;;;;;;;;;;5018581;28;20233;-80
2022/07/20 12:16:55;;;;;;;16.15;8.52;;;;;;;;;;5019724;28;20203;-80
2022/07/20 12:19:22;;;;;;;14.07;9.43;;;;;;;;;;5017015;28;20264;-79
2022/07/20 12:21:51;;;;;;;17.80;8.80;;;;;;;;;;5011389;28;20329;-80
2022/07/20 12:24:18;;;;;;;22.13;8.65;;;;;;;;;;5009458;28;20605;-79
2022/07/20 12:26:46;;;;;;;14.40;8.38;;;;;;;;;;5009943;28;20214;-79
2022/07/20 12:32:57;;;;;;;15.07;8.90;;;;;;;;;;4988148;28;20235;-79
2022/07/20 12:35:46;;;;;;;16.98;9.30;;;;;;;;;;4987317;28;21024;-79
2022/07/20 12:38:15;;;;;;;16.88;9.27;;;;;;;;;;5009327;28;20217;-79
2022/07/20 12:40:43;;;;;;;17.55;9.10;;;;;;;;;;5010274;28;20207;-80
2022/07/20 12:43:29;;;;;;;15.05;8.55;;;;;;;;;;5008665;28;20208;-80
2022/07/20 12:45:56;;;;;;;17.42;9.20;;;;;;;;;;5011824;28;20212;-80
2022/07/20 12:48:24;;;;;;;14.43;8.95;;;;;;;;;;5009343;28;20271;-79
2022/07/20 12:50:51;;;;;;;16.80;9.07;;;;;;;;;;5010828;28;20664;-80
2022/07/20 12:53:19;;;;;;;20.23;8.82;;;;;;;;;;5015188;28;20272;-81
2022/07/20 12:55:47;;;;;;;14.80;8.25;;;;;;;;;;5011246;28;20232;-80
2022/07/20 12:58:14;;;;;;;18.60;8.98;;;;;;;;;;5005865;28;20210;-80
2022/07/20 13:00:41;;;;;;;14.85;8.70;;;;;;;;;;5006256;28;20212;-80
2022/07/20 13:06:12;;;;;;;20.83;9.25;;;;;;;;;;5009261;28;20693;-80
2022/07/20 13:08:40;;;;;;;18.42;8.98;;;;;;;;;;5008595;28;20234;-80
2022/07/20 13:11:44;;;;;;;16.88;9.52;;;;;;;;;;5011513;28;20209;-80
2022/07/20 13:14:12;;;;;;;15.85;8.68;;;;;;;;;;5009867;28;20313;-80
2022/07/20 13:16:39;;;;;;;14.70;9.10;;;;;;;;;;5011487;28;20201;-80
2022/07/20 13:22:20;;;;;;;17.17;9.32;;;;;;;;;;5013273;28;20185;-80
2022/07/20 13:24:51;;;;;;;13.30;8.90;;;;;;;;;;5013873;28;20715;-80
2022/07/20 13:27:19;;;;;;;16.98;9.63;;;;;;;;;;5008585;28;20215;-80
2022/07/20 13:29:46;;;;;;;19.05;10.82;;;;;;;;;;5010252;28;20233;-81
2022/07/20 13:32:17;;;;;;;27.55;11.02;;;;;;;;;;5012408;28;20207;-81
2022/07/20 13:34:44;;;;;;;21.23;9.57;;;;;;;;;;5008848;28;20235;-79
2022/07/20 13:37:30;;;;;;;15.02;9.85;;;;;;;;;;5010898;28;20202;-80
2022/07/20 13:39:59;;;;;;;20.95;10.05;;;;;;;;;;5014292;28;20773;-80
2022/07/20 13:42:26;;;;;;;17.98;9.98;;;;;;;;;;5012422;28;20206;-80
2022/07/20 13:47:57;;;;;;;16.63;10.07;;;;;;;;;;5014284;28;20183;-80
2022/07/20 13:50:28;;;;;;;17.40;10.05;;;;;;;;;;5015523;28;20296;-80
2022/07/20 13:52:55;;;;;;;20.50;10.75;;;;;;;;;;5014666;28;20206;-79
2022/07/20 13:55:24;;;;;;;17.73;11.10;;;;;;;;;;5016101;28;20260;-80
2022/07/20 13:57:51;;;;;;;17.30;10.70;;;;;;;;;;5015160;28;20262;-80
2022/07/20 14:00:19;;;;;;;20.88;11.40;;;;;;;;;;5015933;28;20595;-80
2022/07/20 14:02:52;;;;;;;22.77;11.57;;;;;;;;;;5018500;28;20206;-80
2022/07/20 14:08:06;;;;;;;19.73;10.77;;;;;;;;;;5012928;28;20212;-80
2022/07/20 14:10:36;;;;;;;22.27;11.32;;;;;;;;;;5014073;28;20204;-80
2022/07/20 14:13:03;;;;;;;24.50;11.57;;;;;;;;;;5012055;28;20254;-80
2022/07/20 14:15:30;;;;;;;18.77;11.68;;;;;;;;;;5017414;28;20253;-80
2022/07/20 14:17:57;;;;;;;18.63;11.07;;;;;;;;;;5015647;28;20241;-79
2022/07/20 14:20:24;;;;;;;19.10;11.68;;;;;;;;;;5013960;28;20244;-80
2022/07/20 14:22:51;;;;;;;21.38;11.70;;;;;;;;;;5011697;28;20210;-81
2022/07/20 14:25:19;;;;;;;23.40;12.40;;;;;;;;;;5011464;28;20237;-80
2022/07/20 14:27:47;;;;;;;22.05;12.18;;;;;;;;;;5012486;28;20215;-80
2022/07/20 14:30:16;;;;;;;18.75;12.02;;;;;;;;;;5011534;28;20642;-80
2022/07/20 14:32:43;;;;;;;20.40;12.05;;;;;;;;;;5009990;28;20199;-80
2022/07/20 14:35:10;;;;;;;19.63;11.75;;;;;;;;;;5010507;28;20714;-80
2022/07/20 14:37:38;;;;;;;17.17;12.18;;;;;;;;;;5011561;28;20265;-80
2022/07/20 14:40:06;;;;;;;18.38;12.20;;;;;;;;;;5011151;28;20709;-80
2022/07/20 14:42:33;;;;;;;23.77;12.25;;;;;;;;;;5015262;28;20209;-80
2022/07/20 14:45:01;;;;;;;18.77;12.60;;;;;;;;;;5010414;28;20273;-79
2022/07/20 14:47:29;;;;;;;20.98;11.43;;;;;;;;;;5012068;28;20209;-80
2022/07/20 14:49:56;;;;;;;24.58;12.55;;;;;;;;;;5009412;28;20209;-80
2022/07/20 14:52:23;;;;;;;19.38;11.95;;;;;;;;;;5014379;28;20207;-80
2022/07/20 14:54:50;;;;;;;20.70;12.20;;;;;;;;;;5010749;28;20228;-79
2022/07/20 14:57:17;;;;;;;20.80;11.52;;;;;;;;;;5005755;28;20231;-80
2022/07/20 14:59:44;;;;;;;20.63;12.60;;;;;;;;;;5010358;28;20307;-80
2022/07/20 15:02:13;;;;;;;19.38;11.85;;;;;;;;;;5024114;28;20326;-80
2022/07/20 15:04:40;;;;;;;20.15;12.35;;;;;;;;;;5017957;28;20610;-80
2022/07/20 15:07:07;;;;;;;18.27;12.10;;;;;;;;;;5018663;28;20291;-80
2022/07/20 15:09:34;;;;;;;21.42;12.07;;;;;;;;;;5018462;28;20208;-80
2022/07/20 15:12:02;;;;;;;21.83;11.83;;;;;;;;;;5010327;28;20209;-79
2022/07/20 15:14:29;;;;;;;23.00;12.37;;;;;;;;;;5017707;28;20692;-80
2022/07/20 15:16:56;;;;;;;21.57;12.10;;;;;;;;;;5019126;28;20208;-80
2022/07/20 15:19:24;;;;;;;18.93;12.77;;;;;;;;;;5015642;28;20227;-80
2022/07/20 15:21:52;;;;;;;20.30;12.67;;;;;;;;;;5015366;28;20200;-80
2022/07/20 15:24:19;;;;;;;22.13;12.83;;;;;;;;;;5016891;28;20231;-80
2022/07/20 15:26:47;;;;;;;21.93;12.70;;;;;;;;;;5018782;28;20213;-80
2022/07/20 15:29:14;;;;;;;19.47;12.37;;;;;;;;;;5012828;28;20201;-80
2022/07/20 15:31:41;;;;;;;19.47;12.20;;;;;;;;;;5017766;28;20215;-80
2022/07/20 15:34:08;;;;;;;25.57;13.13;;;;;;;;;;5018437;28;20710;-80
2022/07/20 15:36:37;;;;;;;24.90;12.53;;;;;;;;;;5015580;28;20204;-80
2022/07/20 15:39:04;;;;;;;22.97;12.77;;;;;;;;;;5017821;28;20200;-80
2022/07/20 15:41:31;;;;;;;20.73;12.10;;;;;;;;;;5016183;28;20231;-80
2022/07/20 15:43:58;;;;;;;19.77;12.13;;;;;;;;;;5017729;28;20599;-79
2022/07/20 15:46:25;;;;;;;21.33;12.87;;;;;;;;;;5018280;28;20215;-80
2022/07/20 15:48:55;;;;;;;22.43;12.77;;;;;;;;;;5012498;28;20243;-79